Time;durP1;ratioP1;P1;durP2;ratioP2;P2;SDS_P1;SDS_P2;PMS_P1;PMS_P2;Temp;Humidity;BMP_temperature;BMP_pressure;BME280_temperature;BME280_humidity;BME280_pressure;Samples;Min_cycle;Max_cycle;Signal;HPM_P1;HPM_P2
2024/01/26 00:01:36;;;;;;;14.50;6.05;;;8.40;99.90;;;;;;5020582;28;20531;-65
2024/01/26 00:04:01;;;;;;;13.38;5.70;;;8.40;99.90;;;;;;5026078;28;20025;-64
2024/01/26 00:06:27;;;;;;;13.90;5.30;;;8.50;99.90;;;;;;5024415;28;20061;-64
2024/01/26 00:08:53;;;;;;;14.75;6.20;;;8.50;99.90;;;;;;5019115;28;20029;-64
2024/01/26 00:11:19;;;;;;;12.52;6.00;;;8.50;99.90;;;;;;5016453;28;20064;-64
2024/01/26 00:13:44;;;;;;;13.50;5.40;;;8.50;99.90;;;;;;5025652;28;20052;-64
2024/01/26 00:16:10;;;;;;;11.57;5.43;;;8.50;99.90;;;;;;5020641;28;20034;-64
2024/01/26 00:18:40;;;;;;;13.00;5.10;;;8.50;99.90;;;;;;5016703;28;20049;-64
2024/01/26 00:21:06;;;;;;;13.40;6.07;;;8.50;99.90;;;;;;5020059;28;20032;-64
2024/01/26 00:23:32;;;;;;;13.82;5.80;;;8.50;99.90;;;;;;5026310;28;20047;-65
2024/01/26 00:25:57;;;;;;;13.48;5.25;;;8.50;99.90;;;;;;5017237;28;20712;-64
2024/01/26 00:28:23;;;;;;;11.88;5.50;;;8.60;99.90;;;;;;5023272;28;20043;-66
2024/01/26 00:30:49;;;;;;;13.15;5.15;;;8.50;99.90;;;;;;5026945;28;20022;-65
2024/01/26 00:33:15;;;;;;;11.82;5.38;;;8.60;99.90;;;;;;5018368;28;20025;-64
2024/01/26 00:35:40;;;;;;;12.95;5.32;;;8.40;99.90;;;;;;5023198;28;20077;-64
2024/01/26 00:38:06;;;;;;;13.15;5.13;;;8.60;99.90;;;;;;5020969;28;20080;-64
2024/01/26 00:40:31;;;;;;;12.32;5.63;;;8.60;99.90;;;;;;5024999;28;20108;-64
2024/01/26 00:42:57;;;;;;;16.48;5.28;;;8.60;99.90;;;;;;5021138;28;20096;-64
2024/01/26 00:45:23;;;;;;;10.57;4.57;;;8.60;99.90;;;;;;5026334;28;20076;-64
2024/01/26 00:47:48;;;;;;;10.77;4.40;;;8.60;99.90;;;;;;5023563;28;20380;-64
2024/01/26 00:50:14;;;;;;;12.32;5.18;;;8.60;99.90;;;;;;5021272;28;20813;-64
2024/01/26 00:52:40;;;;;;;10.18;4.65;;;8.70;99.90;;;;;;5022529;28;20125;-64
2024/01/26 00:55:06;;;;;;;11.45;5.30;;;8.80;99.90;;;;;;5021747;28;20025;-64
2024/01/26 00:57:32;;;;;;;11.77;5.28;;;8.70;99.90;;;;;;5016127;28;20060;-64
2024/01/26 00:59:59;;;;;;;12.13;5.32;;;8.70;99.90;;;;;;5024614;28;20053;-64
2024/01/26 01:02:25;;;;;;;11.73;4.90;;;8.80;99.90;;;;;;5025853;28;20068;-64
2024/01/26 01:04:50;;;;;;;10.93;4.78;;;8.70;99.90;;;;;;5028550;28;20080;-64
2024/01/26 01:07:16;;;;;;;11.73;4.85;;;8.70;99.90;;;;;;5028542;28;20037;-64
2024/01/26 01:09:41;;;;;;;11.35;4.70;;;8.80;99.90;;;;;;5026075;28;20036;-64
2024/01/26 01:12:07;;;;;;;13.00;4.68;;;8.80;99.90;;;;;;5023319;28;20417;-64
2024/01/26 01:14:35;;;;;;;11.10;4.57;;;8.80;99.90;;;;;;5022639;28;20048;-64
2024/01/26 01:17:01;;;;;;;11.95;5.00;;;8.80;99.90;;;;;;5026996;28;20017;-64
2024/01/26 01:19:27;;;;;;;12.32;5.00;;;8.80;99.90;;;;;;5020840;28;20030;-64
2024/01/26 01:21:53;;;;;;;11.13;5.15;;;8.80;99.90;;;;;;5023839;28;20025;-64
2024/01/26 01:24:19;;;;;;;11.25;4.93;;;8.80;99.90;;;;;;5025170;28;20112;-64
2024/01/26 01:26:44;;;;;;;11.13;5.22;;;8.80;99.90;;;;;;5026067;28;20014;-64
2024/01/26 01:29:10;;;;;;;13.32;5.30;;;8.80;99.90;;;;;;5023186;28;20072;-64
2024/01/26 01:31:35;;;;;;;12.27;4.97;;;8.80;99.90;;;;;;5024989;28;20061;-64
2024/01/26 01:34:01;;;;;;;12.82;5.80;;;8.80;99.90;;;;;;5021659;28;20032;-64
2024/01/26 01:36:27;;;;;;;12.88;5.18;;;8.80;99.90;;;;;;5026084;28;20061;-65
2024/01/26 01:38:52;;;;;;;11.70;5.10;;;8.80;99.90;;;;;;5022266;28;20030;-63
2024/01/26 01:41:18;;;;;;;12.02;4.40;;;8.90;99.90;;;;;;5026779;28;20476;-64
2024/01/26 01:43:44;;;;;;;10.93;5.22;;;8.90;99.90;;;;;;5025329;28;20033;-64
2024/01/26 01:46:09;;;;;;;12.35;4.97;;;8.90;99.90;;;;;;5026160;28;20461;-64
2024/01/26 01:48:35;;;;;;;14.38;5.85;;;8.90;99.90;;;;;;5025601;28;20104;-64
2024/01/26 01:51:02;;;;;;;12.27;6.38;;;8.80;99.90;;;;;;5023232;28;20042;-65
2024/01/26 01:53:29;;;;;;;13.98;6.50;;;8.90;99.90;;;;;;5027339;28;20025;-64
2024/01/26 01:55:56;;;;;;;13.18;6.13;;;8.90;99.90;;;;;;5023581;28;20026;-65
2024/01/26 01:58:22;;;;;;;14.90;7.53;;;8.90;99.90;;;;;;5027145;28;20088;-65
2024/01/26 02:00:48;;;;;;;15.40;7.00;;;8.90;99.90;;;;;;5022264;28;20034;-65
2024/01/26 02:03:14;;;;;;;15.45;6.80;;;8.90;99.90;;;;;;5026292;28;20361;-63
2024/01/26 02:05:39;;;;;;;14.57;6.90;;;8.90;99.90;;;;;;5028120;28;20021;-65
2024/01/26 02:08:05;;;;;;;18.05;7.32;;;8.90;99.90;;;;;;5025727;28;20032;-65
2024/01/26 02:10:31;;;;;;;15.63;7.43;;;8.90;99.90;;;;;;5025170;28;20018;-65
2024/01/26 02:12:57;;;;;;;16.92;6.65;;;8.90;99.90;;;;;;5021122;28;20053;-65
2024/01/26 02:15:22;;;;;;;16.85;7.40;;;9.00;99.90;;;;;;5020162;28;20389;-64
2024/01/26 02:17:48;;;;;;;17.85;7.90;;;9.00;99.90;;;;;;5019617;28;20018;-65
2024/01/26 02:20:13;;;;;;;16.88;7.43;;;9.00;99.90;;;;;;5020470;28;20532;-64
2024/01/26 02:22:39;;;;;;;21.17;9.23;;;9.00;99.90;;;;;;5022518;28;20022;-63
2024/01/26 02:25:06;;;;;;;26.50;10.10;;;9.00;99.90;;;;;;5022696;28;20152;-63
2024/01/26 02:27:33;;;;;;;20.63;8.98;;;9.10;99.90;;;;;;5021825;28;20112;-64
2024/01/26 02:29:59;;;;;;;19.40;8.13;;;9.10;99.90;;;;;;5021584;28;20026;-64
2024/01/26 02:32:25;;;;;;;22.77;9.70;;;9.00;99.90;;;;;;5018542;28;20245;-63
2024/01/26 02:34:50;;;;;;;17.33;7.50;;;9.10;99.90;;;;;;5018595;28;20128;-63
2024/01/26 02:37:16;;;;;;;23.98;10.60;;;9.10;99.90;;;;;;5023380;28;20644;-63
2024/01/26 02:39:41;;;;;;;24.98;10.20;;;9.10;99.90;;;;;;5023467;28;20072;-63
2024/01/26 02:42:07;;;;;;;26.25;11.15;;;9.10;99.90;;;;;;5020684;28;20117;-63
2024/01/26 02:44:33;;;;;;;26.25;10.90;;;9.20;99.90;;;;;;5022450;28;20040;-64
2024/01/26 02:46:59;;;;;;;24.95;10.63;;;9.20;99.90;;;;;;5024529;28;20083;-62
2024/01/26 02:49:24;;;;;;;23.50;10.77;;;9.20;99.90;;;;;;5024895;28;20432;-63
2024/01/26 02:51:50;;;;;;;28.10;12.48;;;9.30;99.90;;;;;;5015870;28;20072;-62
2024/01/26 02:54:15;;;;;;;19.50;7.63;;;9.20;99.90;;;;;;5022997;28;20034;-63
2024/01/26 02:56:41;;;;;;;22.90;8.75;;;9.30;99.90;;;;;;5023111;28;20521;-62
2024/01/26 02:59:07;;;;;;;25.33;11.15;;;9.30;99.90;;;;;;5025355;28;20102;-63
2024/01/26 03:01:32;;;;;;;21.13;8.85;;;9.30;99.90;;;;;;5018733;28;20026;-63
2024/01/26 03:03:59;;;;;;;17.38;7.28;;;9.30;99.90;;;;;;5022549;28;20033;-63
2024/01/26 03:06:25;;;;;;;22.70;10.52;;;9.30;99.90;;;;;;5018808;28;20468;-63
2024/01/26 03:08:50;;;;;;;23.35;10.00;;;9.30;99.90;;;;;;5022298;28;20057;-63
2024/01/26 03:11:16;;;;;;;19.20;8.35;;;9.30;99.90;;;;;;5022401;28;20064;-63
2024/01/26 03:13:42;;;;;;;24.17;10.07;;;9.30;99.90;;;;;;5018969;28;20042;-64
2024/01/26 03:16:08;;;;;;;20.38;9.05;;;9.30;99.90;;;;;;5050816;28;20104;-63
2024/01/26 03:18:34;;;;;;;20.52;9.07;;;9.30;99.90;;;;;;5016827;28;20432;-63
2024/01/26 03:21:01;;;;;;;22.85;9.82;;;9.30;99.90;;;;;;5016701;28;20030;-63
2024/01/26 03:23:26;;;;;;;22.15;10.07;;;9.30;99.90;;;;;;5020852;28;20473;-62
2024/01/26 03:25:52;;;;;;;19.73;9.05;;;9.30;99.90;;;;;;5019753;28;20022;-63
2024/01/26 03:28:17;;;;;;;21.05;9.40;;;9.30;99.90;;;;;;5018479;28;20033;-63
2024/01/26 03:30:44;;;;;;;21.50;9.70;;;9.40;99.90;;;;;;5021792;28;20421;-63
2024/01/26 03:33:09;;;;;;;20.42;9.05;;;9.40;99.90;;;;;;5017674;28;20111;-63
2024/01/26 03:35:35;;;;;;;19.13;9.07;;;9.40;99.90;;;;;;5022631;28;20091;-63
2024/01/26 03:38:03;;;;;;;19.63;9.60;;;9.30;99.90;;;;;;5021372;28;20030;-63
2024/01/26 03:40:28;;;;;;;17.95;7.88;;;9.40;99.90;;;;;;5020411;28;20500;-62
2024/01/26 03:42:54;;;;;;;19.70;9.27;;;9.40;99.90;;;;;;5018929;28;20026;-62
2024/01/26 03:45:20;;;;;;;14.13;5.70;;;9.40;99.90;;;;;;5016950;28;20044;-62
2024/01/26 03:47:45;;;;;;;21.83;9.88;;;9.40;99.90;;;;;;5024560;28;20500;-62
2024/01/26 03:50:11;;;;;;;18.77;8.40;;;9.40;99.90;;;;;;5020211;28;20032;-62
2024/01/26 03:52:37;;;;;;;18.55;7.97;;;9.30;99.90;;;;;;5017975;28;20045;-63
2024/01/26 03:55:06;;;;;;;20.42;8.30;;;9.30;99.90;;;;;;5019425;28;20025;-63
2024/01/26 03:57:32;;;;;;;17.20;8.02;;;9.30;99.90;;;;;;5018216;28;20370;-63
2024/01/26 03:59:58;;;;;;;16.20;7.13;;;9.40;99.90;;;;;;5017828;28;20095;-62
2024/01/26 04:02:23;;;;;;;16.42;7.28;;;9.40;99.90;;;;;;5019416;28;20038;-63
2024/01/26 04:04:49;;;;;;;14.93;5.88;;;9.40;99.90;;;;;;5020160;28;20107;-62
2024/01/26 04:07:14;;;;;;;16.17;7.20;;;9.40;99.90;;;;;;5019212;28;20037;-63
2024/01/26 04:09:40;;;;;;;17.55;7.30;;;9.30;99.90;;;;;;5021120;28;20025;-62
2024/01/26 04:12:06;;;;;;;16.30;6.00;;;9.30;99.90;;;;;;5017715;28;20510;-63
2024/01/26 04:14:31;;;;;;;15.82;6.90;;;9.40;99.90;;;;;;5020852;28;20035;-62
2024/01/26 04:16:57;;;;;;;15.15;7.53;;;9.30;99.90;;;;;;5018693;28;20052;-62
2024/01/26 04:19:23;;;;;;;15.85;7.47;;;9.40;99.90;;;;;;5018745;28;20029;-63
2024/01/26 04:21:49;;;;;;;14.80;7.20;;;9.30;99.90;;;;;;5018665;28;20022;-62
2024/01/26 04:24:15;;;;;;;18.73;8.30;;;9.50;99.90;;;;;;5018376;28;20033;-63
2024/01/26 04:26:41;;;;;;;18.52;7.97;;;9.40;99.90;;;;;;5018017;28;20091;-62
2024/01/26 04:29:07;;;;;;;20.58;8.57;;;9.40;99.90;;;;;;5018623;28;20025;-63
2024/01/26 04:31:33;;;;;;;19.67;8.50;;;9.40;99.90;;;;;;5018207;28;20033;-63
2024/01/26 04:33:58;;;;;;;16.75;7.50;;;9.40;99.90;;;;;;5019805;28;20063;-63
2024/01/26 04:36:24;;;;;;;17.40;6.60;;;9.40;99.90;;;;;;5018736;28;20057;-62
2024/01/26 04:38:50;;;;;;;18.38;7.32;;;9.40;99.90;;;;;;5021584;28;20056;-63
2024/01/26 04:41:15;;;;;;;15.98;6.32;;;9.30;99.90;;;;;;5018519;28;20853;-65
2024/01/26 04:43:43;;;;;;;14.60;5.75;;;9.40;99.90;;;;;;5017213;28;20413;-63
2024/01/26 04:46:08;;;;;;;13.45;5.40;;;9.40;99.90;;;;;;5022036;28;20037;-63
2024/01/26 04:48:34;;;;;;;11.57;5.15;;;9.60;99.90;;;;;;5028348;28;20021;-63
2024/01/26 04:51:00;;;;;;;11.57;4.93;;;9.40;99.90;;;;;;5029314;28;20026;-63
2024/01/26 04:53:25;;;;;;;12.55;5.45;;;9.40;99.90;;;;;;5027524;28;20028;-63
2024/01/26 04:55:51;;;;;;;14.23;5.93;;;9.40;99.90;;;;;;5023749;28;20029;-63
2024/01/26 04:58:16;;;;;;;16.05;5.93;;;9.50;99.90;;;;;;5021839;28;20045;-64
2024/01/26 05:00:42;;;;;;;13.63;5.55;;;9.50;99.90;;;;;;5022526;28;20017;-63
2024/01/26 05:03:08;;;;;;;14.35;6.28;;;9.50;99.90;;;;;;5018818;28;20026;-63
2024/01/26 05:05:33;;;;;;;14.18;6.57;;;9.50;99.90;;;;;;5021433;28;20104;-63
2024/01/26 05:07:59;;;;;;;13.07;5.93;;;9.40;99.90;;;;;;5019255;28;20045;-64
2024/01/26 05:10:24;;;;;;;15.00;5.82;;;9.50;99.90;;;;;;5017663;28;20034;-63
2024/01/26 05:12:50;;;;;;;13.55;5.75;;;9.50;99.90;;;;;;5019661;28;20054;-63
2024/01/26 05:15:16;;;;;;;14.40;5.90;;;9.40;99.90;;;;;;5021326;28;20026;-64
2024/01/26 05:17:41;;;;;;;12.40;5.80;;;9.50;99.90;;;;;;5018302;28;20477;-64
2024/01/26 05:20:10;;;;;;;15.52;5.85;;;9.50;99.90;;;;;;5019119;28;20029;-65
2024/01/26 05:22:36;;;;;;;13.60;5.57;;;9.50;99.90;;;;;;5013958;28;20386;-64
2024/01/26 05:25:02;;;;;;;13.55;5.97;;;9.50;99.90;;;;;;5018892;28;20051;-64
2024/01/26 05:27:29;;;;;;;14.98;5.78;;;9.60;99.90;;;;;;5019467;28;20069;-63
2024/01/26 05:29:55;;;;;;;14.77;6.18;;;9.60;99.90;;;;;;5017184;28;20605;-64
2024/01/26 05:32:20;;;;;;;13.95;5.75;;;9.60;99.90;;;;;;5017549;28;20026;-63
2024/01/26 05:34:46;;;;;;;15.63;6.40;;;9.60;99.90;;;;;;5018893;28;20033;-63
2024/01/26 05:37:12;;;;;;;10.55;4.78;;;9.60;99.90;;;;;;5019223;28;20021;-63
2024/01/26 05:39:37;;;;;;;15.63;6.25;;;9.70;99.90;;;;;;5014142;28;20057;-63
2024/01/26 05:42:03;;;;;;;16.25;7.00;;;9.70;99.90;;;;;;5020736;28;20170;-64
2024/01/26 05:44:28;;;;;;;14.05;6.30;;;9.70;99.90;;;;;;5022464;28;20022;-63
2024/01/26 05:46:54;;;;;;;13.63;5.50;;;9.70;99.90;;;;;;5019435;28;20030;-63
2024/01/26 05:49:20;;;;;;;12.82;5.55;;;9.70;99.90;;;;;;5022686;28;20022;-63
2024/01/26 05:51:45;;;;;;;13.95;6.35;;;9.70;99.90;;;;;;5019153;28;20462;-62
2024/01/26 05:54:12;;;;;;;13.80;5.93;;;9.80;99.90;;;;;;5022766;28;20025;-62
2024/01/26 05:56:41;;;;;;;13.13;5.03;;;9.80;99.90;;;;;;5022142;28;20036;-62
2024/01/26 05:59:07;;;;;;;11.43;4.43;;;9.90;99.90;;;;;;5021455;28;20545;-63
2024/01/26 06:01:34;;;;;;;12.65;5.78;;;9.80;99.90;;;;;;5021539;28;20099;-62
2024/01/26 06:03:59;;;;;;;13.43;6.13;;;9.80;99.90;;;;;;5020036;28;20053;-62
2024/01/26 06:06:25;;;;;;;11.88;5.50;;;9.90;99.90;;;;;;5020574;28;20517;-61
2024/01/26 06:08:50;;;;;;;12.35;5.63;;;9.90;99.90;;;;;;5023159;28;20472;-62
2024/01/26 06:11:17;;;;;;;12.20;6.10;;;9.90;99.90;;;;;;5022792;28;20099;-62
2024/01/26 06:13:43;;;;;;;13.00;5.53;;;9.90;99.90;;;;;;5021304;28;20029;-62
2024/01/26 06:16:13;;;;;;;11.15;4.63;;;9.90;99.90;;;;;;5022381;28;20351;-63
2024/01/26 06:18:39;;;;;;;11.80;4.63;;;9.90;99.90;;;;;;5021273;28;20033;-62
2024/01/26 06:21:04;;;;;;;11.52;4.82;;;9.90;99.90;;;;;;5021612;28;20462;-64
2024/01/26 06:23:30;;;;;;;10.68;4.78;;;9.90;99.90;;;;;;5020684;28;20026;-63
2024/01/26 06:25:56;;;;;;;10.85;4.55;;;9.90;99.90;;;;;;5022112;28;20103;-62
2024/01/26 06:28:22;;;;;;;8.48;3.60;;;9.90;99.90;;;;;;5017296;28;20393;-62
2024/01/26 06:30:47;;;;;;;10.75;5.15;;;9.90;99.90;;;;;;5021813;28;20048;-63
2024/01/26 06:33:13;;;;;;;13.55;4.53;;;10.00;99.90;;;;;;5021745;28;20489;-62
2024/01/26 06:35:38;;;;;;;8.95;4.13;;;10.00;99.90;;;;;;5021911;28;20022;-62
2024/01/26 06:38:04;;;;;;;9.63;3.65;;;9.90;99.90;;;;;;5021925;28;20026;-63
2024/01/26 06:40:30;;;;;;;9.85;3.67;;;9.80;99.90;;;;;;5020682;28;20483;-63
2024/01/26 06:42:55;;;;;;;8.48;3.45;;;9.90;99.90;;;;;;5019659;28;20021;-62
2024/01/26 06:45:21;;;;;;;9.90;3.42;;;9.90;99.90;;;;;;5015048;28;20033;-62
2024/01/26 06:47:47;;;;;;;8.52;3.05;;;9.90;99.90;;;;;;5029201;28;20028;-62
2024/01/26 06:50:12;;;;;;;8.15;2.78;;;9.90;99.90;;;;;;5018609;28;20030;-62
2024/01/26 06:52:38;;;;;;;7.38;2.78;;;9.90;99.90;;;;;;5019506;28;20108;-62
2024/01/26 06:55:04;;;;;;;8.65;2.80;;;9.90;99.90;;;;;;5022082;28;20075;-62
2024/01/26 06:57:29;;;;;;;7.30;2.92;;;10.00;99.90;;;;;;5050117;28;20444;-62
2024/01/26 06:59:55;;;;;;;6.35;2.20;;;10.00;99.90;;;;;;5021806;28;20026;-63
2024/01/26 07:02:21;;;;;;;6.38;2.22;;;10.00;99.90;;;;;;5020016;28;20075;-63
2024/01/26 07:04:47;;;;;;;5.47;1.98;;;10.00;99.90;;;;;;5022447;28;20385;-64
2024/01/26 07:07:12;;;;;;;6.65;2.20;;;10.00;99.90;;;;;;5021520;28;20035;-64
2024/01/26 07:09:38;;;;;;;5.60;2.00;;;10.10;99.90;;;;;;5020745;28;20109;-64
2024/01/26 07:12:04;;;;;;;6.22;2.08;;;10.10;99.90;;;;;;5019838;28;20053;-64
2024/01/26 07:14:30;;;;;;;5.68;1.75;;;10.10;99.90;;;;;;5024052;28;20032;-63
2024/01/26 07:16:55;;;;;;;5.18;1.85;;;10.10;99.90;;;;;;5018948;28;20504;-64
2024/01/26 07:19:21;;;;;;;6.57;1.50;;;10.10;99.90;;;;;;5018079;28;20026;-64
2024/01/26 07:21:46;;;;;;;5.45;1.92;;;10.10;99.90;;;;;;5024980;28;20045;-64
2024/01/26 07:24:12;;;;;;;6.03;1.88;;;10.00;99.90;;;;;;5020135;28;20034;-64
2024/01/26 07:26:38;;;;;;;5.57;1.63;;;10.00;99.90;;;;;;5021793;28;20038;-64
2024/01/26 07:29:04;;;;;;;5.15;1.80;;;9.90;99.90;;;;;;5020176;28;20026;-64
2024/01/26 07:31:29;;;;;;;5.95;1.92;;;9.90;99.90;;;;;;5021736;28;20029;-64
2024/01/26 07:33:55;;;;;;;4.60;1.60;;;9.90;99.90;;;;;;5018523;28;20480;-65
2024/01/26 07:36:21;;;;;;;6.85;1.90;;;9.90;99.90;;;;;;5019601;28;20076;-64
2024/01/26 07:38:46;;;;;;;5.20;2.08;;;9.90;99.90;;;;;;5017634;28;20021;-64
2024/01/26 07:41:12;;;;;;;7.10;2.10;;;9.80;99.90;;;;;;5018117;28;20097;-64
2024/01/26 07:43:37;;;;;;;4.00;1.50;;;9.90;99.90;;;;;;5020180;28;20148;-65
2024/01/26 07:46:03;;;;;;;6.93;1.92;;;9.80;99.90;;;;;;5019250;28;20461;-64
2024/01/26 07:48:29;;;;;;;4.88;1.60;;;9.90;99.90;;;;;;5026628;28;20021;-64
2024/01/26 07:50:54;;;;;;;5.78;1.65;;;9.90;99.90;;;;;;5015285;28;20026;-64
2024/01/26 07:53:20;;;;;;;5.18;1.88;;;9.80;99.90;;;;;;5022165;28;20014;-64
2024/01/26 07:55:45;;;;;;;4.35;1.70;;;9.90;99.90;;;;;;5021771;28;20033;-65
2024/01/26 07:58:11;;;;;;;6.80;1.95;;;9.90;99.90;;;;;;5021319;28;20026;-65
2024/01/26 08:00:37;;;;;;;6.75;1.70;;;10.00;99.90;;;;;;5023315;28;20036;-64
2024/01/26 08:03:03;;;;;;;6.72;2.10;;;10.00;99.90;;;;;;5018115;28;20036;-64
2024/01/26 08:05:29;;;;;;;7.15;1.90;;;9.90;99.90;;;;;;5020092;28;20032;-64
2024/01/26 08:07:55;;;;;;;7.05;2.28;;;9.90;99.90;;;;;;5020764;28;20029;-64
2024/01/26 08:10:20;;;;;;;4.82;1.80;;;9.80;99.90;;;;;;5017810;28;20101;-63
2024/01/26 08:12:46;;;;;;;5.97;1.77;;;9.80;99.90;;;;;;5017541;28;20065;-62
2024/01/26 08:15:11;;;;;;;6.88;2.20;;;9.80;99.90;;;;;;5017609;28;20026;-63
2024/01/26 08:17:37;;;;;;;6.50;2.10;;;9.70;99.90;;;;;;5021149;28;20575;-63
2024/01/26 08:20:03;;;;;;;6.00;2.00;;;9.70;99.90;;;;;;5016558;28;20065;-62
2024/01/26 08:22:30;;;;;;;6.30;2.30;;;9.70;99.90;;;;;;5014438;28;20100;-63
2024/01/26 08:25:00;;;;;;;7.05;2.45;;;9.70;99.90;;;;;;5019382;28;20025;-63
2024/01/26 08:27:26;;;;;;;9.07;2.88;;;9.60;99.90;;;;;;5020375;28;20020;-62
2024/01/26 08:29:52;;;;;;;6.70;2.08;;;9.60;99.90;;;;;;5021190;28;20764;-63
2024/01/26 08:32:17;;;;;;;7.60;2.35;;;9.50;99.90;;;;;;5021730;28;20034;-63
2024/01/26 08:34:43;;;;;;;6.90;2.65;;;9.50;99.90;;;;;;5026021;28;20030;-62
2024/01/26 08:37:08;;;;;;;6.07;2.28;;;9.50;99.90;;;;;;5029611;28;20017;-63
2024/01/26 08:39:35;;;;;;;5.88;2.10;;;9.50;99.90;;;;;;5016393;28;20014;-63
2024/01/26 08:42:01;;;;;;;6.18;2.13;;;9.50;99.90;;;;;;5010439;28;20026;-63
2024/01/26 08:44:27;;;;;;;6.82;2.25;;;9.50;99.90;;;;;;5014284;28;20032;-63
2024/01/26 08:46:52;;;;;;;6.80;2.47;;;9.50;99.90;;;;;;5014678;28;20026;-63
2024/01/26 08:49:18;;;;;;;10.98;2.42;;;9.50;99.90;;;;;;5016005;28;20038;-63
2024/01/26 08:51:44;;;;;;;9.48;2.58;;;9.50;99.90;;;;;;5010573;28;20052;-63
2024/01/26 08:54:10;;;;;;;6.30;2.00;;;9.50;99.90;;;;;;5017198;28;20108;-63
2024/01/26 08:56:41;;;;;;;5.90;2.10;;;9.50;99.90;;;;;;5012315;28;20453;-63
2024/01/26 08:59:07;;;;;;;6.00;2.30;;;9.60;99.90;;;;;;5015592;28;20386;-63
2024/01/26 09:01:34;;;;;;;6.82;2.30;;;9.60;99.90;;;;;;5017424;28;20026;-62
2024/01/26 09:04:00;;;;;;;6.65;2.20;;;9.60;99.90;;;;;;5012183;28;20026;-63
2024/01/26 09:06:26;;;;;;;4.85;1.90;;;9.70;99.90;;;;;;5016557;28;20033;-62
2024/01/26 09:08:52;;;;;;;5.82;2.00;;;9.60;99.90;;;;;;5014872;28;20026;-63
2024/01/26 09:11:17;;;;;;;6.57;2.80;;;9.70;99.90;;;;;;5021301;28;20046;-63
2024/01/26 09:13:43;;;;;;;6.65;2.53;;;9.70;99.90;;;;;;5015422;28;20064;-63
2024/01/26 09:16:12;;;;;;;6.82;2.70;;;9.80;99.90;;;;;;5014283;28;20018;-64
2024/01/26 09:18:38;;;;;;;7.22;2.78;;;9.80;99.90;;;;;;5014348;28;20052;-63
2024/01/26 09:21:05;;;;;;;8.05;3.30;;;9.80;99.90;;;;;;5020912;28;20026;-63
2024/01/26 09:23:30;;;;;;;8.68;3.35;;;9.90;99.90;;;;;;5016765;28;20041;-63
2024/01/26 09:25:58;;;;;;;9.43;4.38;;;10.00;99.90;;;;;;5020258;28;20032;-62
2024/01/26 09:28:24;;;;;;;7.75;3.75;;;10.00;99.90;;;;;;5027308;28;20029;-63
2024/01/26 09:30:49;;;;;;;9.25;3.22;;;10.10;99.90;;;;;;5020929;28;20481;-63
2024/01/26 09:33:15;;;;;;;11.80;4.82;;;10.10;99.90;;;;;;5016323;28;20022;-63
2024/01/26 09:35:40;;;;;;;12.93;6.28;;;10.20;99.90;;;;;;5020105;28;20049;-63
2024/01/26 09:38:06;;;;;;;9.75;4.25;;;10.20;99.90;;;;;;5017882;28;20030;-63
2024/01/26 09:40:32;;;;;;;11.98;5.13;;;10.20;99.90;;;;;;5021042;28;20380;-62
2024/01/26 09:42:57;;;;;;;10.60;5.28;;;10.20;99.90;;;;;;5020359;28;20037;-63
2024/01/26 09:45:23;;;;;;;13.88;5.40;;;10.30;99.90;;;;;;5025156;28;20472;-61
2024/01/26 09:47:54;;;;;;;9.32;4.15;;;10.30;99.90;;;;;;5025987;28;20477;-62
2024/01/26 09:50:23;;;;;;;9.95;4.25;;;10.30;99.90;;;;;;5016358;28;20113;-62
2024/01/26 09:52:52;;;;;;;10.53;4.23;;;10.30;99.90;;;;;;5018440;28;20030;-62
2024/01/26 09:55:21;;;;;;;10.90;4.67;;;10.40;99.90;;;;;;5021031;28;20025;-63
2024/01/26 09:57:47;;;;;;;8.23;3.72;;;10.40;99.90;;;;;;5020235;28;20047;-62
2024/01/26 10:00:14;;;;;;;7.97;2.92;;;10.50;99.90;;;;;;5023464;28;20022;-62
2024/01/26 10:02:41;;;;;;;8.80;3.65;;;10.50;99.90;;;;;;5021507;28;20018;-62
2024/01/26 10:05:07;;;;;;;9.10;3.63;;;10.50;99.90;;;;;;5019699;28;20029;-61
2024/01/26 10:07:33;;;;;;;7.70;3.17;;;10.50;99.90;;;;;;5020361;28;20087;-62
2024/01/26 10:09:58;;;;;;;7.07;3.38;;;10.50;99.90;;;;;;5020239;28;20079;-62
2024/01/26 10:12:24;;;;;;;7.30;3.58;;;10.50;99.90;;;;;;5014242;28;20513;-61
2024/01/26 10:15:02;;;;;;;7.60;2.67;;;10.50;99.90;;;;;;5012501;28;20127;-62
2024/01/26 10:17:27;;;;;;;8.02;2.97;;;10.50;99.90;;;;;;5051386;28;20104;-61
2024/01/26 10:19:53;;;;;;;6.70;2.10;;;10.50;99.90;;;;;;5014833;28;20101;-61
2024/01/26 10:22:18;;;;;;;5.93;1.90;;;10.50;99.90;;;;;;5017730;28;20097;-62
2024/01/26 10:24:44;;;;;;;6.28;2.42;;;10.60;99.90;;;;;;5021061;28;20030;-62
2024/01/26 10:27:10;;;;;;;6.60;2.75;;;10.50;99.90;;;;;;5015161;28;20021;-62
2024/01/26 10:29:37;;;;;;;6.25;2.25;;;10.60;99.90;;;;;;5020691;28;20110;-63
2024/01/26 10:32:10;;;;;;;6.80;2.92;;;10.60;99.90;;;;;;5018993;28;20036;-63
2024/01/26 10:34:36;;;;;;;7.82;2.38;;;10.60;99.90;;;;;;5020241;28;20091;-64
2024/01/26 10:37:07;;;;;;;10.13;2.85;;;10.70;99.90;;;;;;5016904;28;20444;-64
2024/01/26 10:39:36;;;;;;;;;;;10.80;99.90;;;;;;5027298;28;20014;-64
2024/01/26 10:42:05;;;;;;;5.38;2.13;;;10.70;99.90;;;;;;5022164;28;19956;-64
2024/01/26 10:44:34;;;;;;;6.97;2.40;;;10.70;99.90;;;;;;5020115;28;20037;-64
2024/01/26 10:47:01;;;;;;;7.15;2.42;;;10.70;99.90;;;;;;5024701;28;20038;-64
2024/01/26 10:49:27;;;;;;;5.50;1.90;;;10.70;99.90;;;;;;5022923;28;20613;-64
2024/01/26 10:51:55;;;;;;;6.22;2.00;;;10.70;99.90;;;;;;5027050;28;20118;-64
2024/01/26 10:54:23;;;;;;;5.82;1.92;;;10.70;99.90;;;;;;5019508;28;20048;-65
2024/01/26 10:56:49;;;;;;;6.88;2.70;;;10.70;99.90;;;;;;5023828;28;20064;-64
2024/01/26 10:59:16;;;;;;;5.80;2.05;;;10.70;99.90;;;;;;5021136;28;20461;-64
2024/01/26 11:01:43;;;;;;;6.63;2.13;;;10.70;99.90;;;;;;5018489;28;20037;-64
2024/01/26 11:04:11;;;;;;;6.07;2.25;;;10.70;99.90;;;;;;5019400;28;20035;-64
2024/01/26 11:06:39;;;;;;;6.68;2.50;;;10.70;99.90;;;;;;5021993;28;20033;-64
2024/01/26 11:09:08;;;;;;;7.15;2.67;;;10.60;99.90;;;;;;5022366;28;20451;-64
2024/01/26 11:11:36;;;;;;;6.97;2.22;;;10.60;99.90;;;;;;5020319;28;20042;-64
2024/01/26 11:14:03;;;;;;;6.80;2.17;;;10.50;99.90;;;;;;5023060;28;20030;-64
2024/01/26 11:16:33;;;;;;;9.90;4.10;;;10.50;99.90;;;;;;5016193;28;20482;-63
2024/01/26 11:18:59;;;;;;;6.93;3.13;;;10.40;99.90;;;;;;5013726;28;20032;-64
2024/01/26 11:21:35;;;;;;;9.57;3.97;;;10.20;99.90;;;;;;5023073;28;20427;-64
2024/01/26 11:24:14;;;;;;;9.40;3.55;;;10.10;99.90;;;;;;5017547;28;20025;-64
2024/01/26 11:26:41;;;;;;;10.57;2.95;;;9.90;99.90;;;;;;5019243;28;20029;-63
2024/01/26 11:29:16;;;;;;;6.82;2.33;;;9.90;99.90;;;;;;5019119;28;20022;-64
2024/01/26 11:31:42;;;;;;;5.30;1.75;;;9.80;99.90;;;;;;5021656;28;20539;-63
2024/01/26 11:34:20;;;;;;;4.95;1.70;;;9.70;99.90;;;;;;5017769;28;20025;-63
2024/01/26 11:36:46;;;;;;;5.75;1.70;;;9.60;99.90;;;;;;5020830;28;20469;-63
2024/01/26 11:39:15;;;;;;;6.80;2.28;;;9.50;99.90;;;;;;5020799;28;20057;-63
2024/01/26 11:41:44;;;;;;;12.45;2.30;;;9.50;99.90;;;;;;5020389;28;20034;-63
2024/01/26 11:44:20;;;;;;;7.00;2.15;;;9.50;99.90;;;;;;5015697;28;20461;-63
2024/01/26 11:46:46;;;;;;;9.00;2.67;;;9.40;99.90;;;;;;5018325;28;20351;-63
2024/01/26 11:49:12;;;;;;;5.78;1.80;;;9.40;99.90;;;;;;5024085;28;20087;-63
2024/01/26 11:51:38;;;;;;;6.72;1.70;;;9.20;99.90;;;;;;5015048;28;20033;-63
2024/01/26 11:54:04;;;;;;;6.57;1.50;;;9.00;99.90;;;;;;5017850;28;20096;-64
2024/01/26 11:56:30;;;;;;;5.30;1.50;;;8.60;99.90;;;;;;5021540;28;20468;-64
2024/01/26 11:58:56;;;;;;;5.60;1.40;;;8.30;99.90;;;;;;5020060;28;20030;-64
2024/01/26 12:01:22;;;;;;;3.03;1.13;;;8.10;99.90;;;;;;5018588;28;20096;-64
2024/01/26 12:03:47;;;;;;;3.90;0.90;;;8.00;99.90;;;;;;5022016;28;20026;-64
2024/01/26 12:06:13;;;;;;;3.00;1.17;;;8.00;99.90;;;;;;5016426;28;20477;-64
2024/01/26 12:08:39;;;;;;;5.45;1.20;;;8.00;99.90;;;;;;5021332;28;20511;-64
2024/01/26 12:11:04;;;;;;;4.15;0.90;;;8.30;99.90;;;;;;5017572;28;20041;-64
2024/01/26 12:13:30;;;;;;;4.97;1.10;;;9.00;99.90;;;;;;5032134;28;20472;-64
2024/01/26 12:15:57;;;;;;;3.30;1.10;;;9.40;99.90;;;;;;5025153;28;20083;-64
2024/01/26 12:18:23;;;;;;;5.88;1.25;;;9.50;99.90;;;;;;5018945;28;20022;-64
2024/01/26 12:20:50;;;;;;;6.47;1.27;;;9.10;99.90;;;;;;5013622;28;20033;-64
2024/01/26 12:23:17;;;;;;;3.92;1.05;;;8.80;99.90;;;;;;5017976;28;20075;-64
2024/01/26 12:25:43;;;;;;;4.93;1.20;;;8.50;99.90;;;;;;5019649;28;20392;-64
2024/01/26 12:28:09;;;;;;;9.20;1.55;;;8.70;99.90;;;;;;5021032;28;20155;-64
2024/01/26 12:30:34;;;;;;;5.22;1.30;;;8.90;99.90;;;;;;5019349;28;20401;-64
2024/01/26 12:33:06;;;;;;;7.05;1.50;;;9.20;99.90;;;;;;5026724;28;20029;-64
2024/01/26 12:35:35;;;;;;;5.13;1.30;;;9.50;99.90;;;;;;5010051;28;20045;-64
2024/01/26 12:38:01;;;;;;;10.05;1.67;;;9.50;99.90;;;;;;5018368;28;20036;-64
2024/01/26 12:40:26;;;;;;;9.70;2.15;;;9.70;99.90;;;;;;5020454;28;20109;-64
2024/01/26 12:42:52;;;;;;;7.57;1.95;;;9.80;99.90;;;;;;5022480;28;20029;-64